Time;durP1;ratioP1;P1;durP2;ratioP2;P2;SDS_P1;SDS_P2;PMS_P1;PMS_P2;Temp;Humidity;BMP_temperature;BMP_pressure;BME280_temperature;BME280_humidity;BME280_pressure;Samples;Min_cycle;Max_cycle;Signal;HPM_P1;HPM_P2
2021/12/19 00:02:08;;;;;;;15.55;6.53;;;;;;;;;;5031691;28;20034;-79
2021/12/19 00:08:27;;;;;;;13.95;6.18;;;;;;;;;;5031846;28;20032;-80
2021/12/19 00:10:08;;;;;;;13.80;6.15;;;;;;;;;;5024364;28;20111;-79
2021/12/19 00:12:35;;;;;;;12.55;5.97;;;;;;;;;;5031406;28;20025;-79
2021/12/19 00:15:01;;;;;;;13.48;5.82;;;;;;;;;;5014357;28;20068;-79
2021/12/19 00:17:28;;;;;;;17.50;6.22;;;;;;;;;;5031070;28;20053;-80
2021/12/19 00:19:54;;;;;;;11.80;5.55;;;;;;;;;;5031888;28;20369;-79
2021/12/19 00:22:20;;;;;;;14.45;5.47;;;;;;;;;;5032415;28;20029;-79
2021/12/19 00:24:47;;;;;;;11.32;5.85;;;;;;;;;;5013568;28;20032;-79
2021/12/19 00:27:13;;;;;;;11.45;6.45;;;;;;;;;;5014612;28;20619;-80
2021/12/19 00:29:39;;;;;;;17.80;5.72;;;;;;;;;;5032585;28;20488;-79
2021/12/19 00:32:06;;;;;;;14.32;5.95;;;;;;;;;;5025755;28;20029;-79
2021/12/19 00:34:32;;;;;;;11.65;6.80;;;;;;;;;;5031497;28;20034;-79
2021/12/19 00:36:58;;;;;;;11.75;7.10;;;;;;;;;;5030999;28;20132;-80
2021/12/19 00:39:25;;;;;;;13.60;6.65;;;;;;;;;;5031934;28;20029;-80
2021/12/19 00:41:53;;;;;;;20.98;7.38;;;;;;;;;;5032675;28;20030;-80
2021/12/19 00:44:24;;;;;;;15.35;6.55;;;;;;;;;;5032137;28;20036;-79
2021/12/19 00:46:53;;;;;;;13.27;6.20;;;;;;;;;;5031750;28;20491;-80
2021/12/19 00:49:22;;;;;;;23.77;6.75;;;;;;;;;;5031848;28;20032;-79
2021/12/19 00:51:49;;;;;;;14.18;5.70;;;;;;;;;;5013709;28;20033;-79
2021/12/19 00:54:16;;;;;;;20.65;7.85;;;;;;;;;;5032091;28;20474;-79
2021/12/19 00:56:44;;;;;;;11.15;5.63;;;;;;;;;;5030522;28;20029;-80
2021/12/19 00:59:10;;;;;;;17.58;6.25;;;;;;;;;;5033385;28;20025;-80
2021/12/19 01:01:37;;;;;;;14.00;6.25;;;;;;;;;;5014695;28;20480;-79
2021/12/19 01:04:06;;;;;;;19.05;6.57;;;;;;;;;;5031101;28;20033;-79
2021/12/19 01:06:32;;;;;;;19.00;6.55;;;;;;;;;;5031452;28;20112;-79
2021/12/19 01:08:59;;;;;;;18.42;7.20;;;;;;;;;;5031566;28;20108;-79
2021/12/19 01:11:25;;;;;;;13.30;6.38;;;;;;;;;;5031697;28;20033;-79
2021/12/19 01:13:52;;;;;;;17.67;7.38;;;;;;;;;;5031869;28;20053;-79
2021/12/19 01:16:19;;;;;;;15.23;8.68;;;;;;;;;;5014789;28;20041;-79
2021/12/19 01:18:45;;;;;;;16.10;8.02;;;;;;;;;;5032548;28;20033;-79
2021/12/19 01:21:12;;;;;;;15.65;7.68;;;;;;;;;;5032089;28;20022;-79
2021/12/19 01:23:38;;;;;;;12.30;6.95;;;;;;;;;;5031967;28;20126;-80
2021/12/19 01:26:05;;;;;;;12.77;4.05;;;;;;;;;;5031554;28;20032;-79
2021/12/19 01:28:31;;;;;;;8.10;3.22;;;;;;;;;;5014858;28;20049;-79
2021/12/19 01:30:58;;;;;;;9.15;4.25;;;;;;;;;;5017401;28;20495;-79
2021/12/19 01:33:24;;;;;;;11.50;4.68;;;;;;;;;;5033073;28;20022;-79
2021/12/19 01:35:50;;;;;;;9.63;4.15;;;;;;;;;;5020478;28;20030;-78
2021/12/19 01:38:17;;;;;;;9.88;4.00;;;;;;;;;;5015479;28;20084;-79
2021/12/19 01:40:43;;;;;;;20.98;6.18;;;;;;;;;;5019820;28;20120;-78
2021/12/19 01:43:09;;;;;;;20.50;5.28;;;;;;;;;;5035093;28;20038;-79
2021/12/19 01:45:38;;;;;;;13.30;5.57;;;;;;;;;;5035174;28;20029;-78
2021/12/19 01:48:06;;;;;;;15.13;5.65;;;;;;;;;;5017206;28;20025;-79
2021/12/19 01:50:33;;;;;;;34.58;7.30;;;;;;;;;;5014787;28;20458;-77
2021/12/19 01:53:00;;;;;;;38.80;6.90;;;;;;;;;;5033989;28;20568;-79
2021/12/19 01:55:27;;;;;;;23.67;9.10;;;;;;;;;;5015116;28;20032;-78
2021/12/19 01:57:53;;;;;;;27.83;7.28;;;;;;;;;;5034993;28;20030;-79
2021/12/19 02:00:25;;;;;;;21.52;7.75;;;;;;;;;;5034235;28;20063;-79
2021/12/19 02:02:53;;;;;;;22.35;7.63;;;;;;;;;;5013655;28;20484;-80
2021/12/19 02:05:20;;;;;;;19.17;7.38;;;;;;;;;;5032043;28;20479;-78
2021/12/19 02:07:47;;;;;;;18.20;7.18;;;;;;;;;;5028683;28;20113;-79
2021/12/19 02:10:14;;;;;;;19.10;6.65;;;;;;;;;;5028369;28;20025;-79
2021/12/19 02:12:41;;;;;;;20.80;7.43;;;;;;;;;;5015278;28;20439;-78
2021/12/19 02:15:08;;;;;;;20.10;8.27;;;;;;;;;;5037388;28;20123;-80
2021/12/19 02:17:34;;;;;;;21.90;8.68;;;;;;;;;;5044993;28;20029;-78
2021/12/19 02:20:01;;;;;;;21.70;8.23;;;;;;;;;;5033519;28;20029;-79
2021/12/19 02:22:28;;;;;;;23.25;9.57;;;;;;;;;;5029768;28;20037;-79
2021/12/19 02:24:54;;;;;;;20.33;8.27;;;;;;;;;;5033785;28;20025;-80
2021/12/19 02:27:31;;;;;;;13.68;6.63;;;;;;;;;;5031922;28;20029;-79
2021/12/19 02:29:57;;;;;;;17.45;6.93;;;;;;;;;;5034015;28;20464;-78
2021/12/19 02:32:26;;;;;;;14.48;6.55;;;;;;;;;;5016326;28;20419;-79
2021/12/19 02:34:54;;;;;;;14.23;6.30;;;;;;;;;;5033817;28;20112;-78
2021/12/19 02:48:13;;;;;;;12.30;5.53;;;;;;;;;;5023324;28;20519;-79
2021/12/19 02:50:49;;;;;;;10.88;5.07;;;;;;;;;;5030985;28;20029;-79
2021/12/19 02:53:19;;;;;;;21.35;8.60;;;;;;;;;;5026435;28;20453;-80
2021/12/19 02:55:46;;;;;;;26.83;11.30;;;;;;;;;;5022115;28;20040;-80
2021/12/19 02:58:12;;;;;;;24.27;10.57;;;;;;;;;;5029240;28;20029;-80
2021/12/19 03:00:39;;;;;;;26.90;11.15;;;;;;;;;;5024352;28;20073;-79
2021/12/19 03:03:05;;;;;;;23.70;11.07;;;;;;;;;;5023514;28;20366;-79
2021/12/19 03:05:33;;;;;;;32.72;14.32;;;;;;;;;;5030287;28;20041;-79
2021/12/19 03:08:02;;;;;;;27.70;12.40;;;;;;;;;;5028458;28;20452;-80
2021/12/19 03:18:07;;;;;;;19.75;9.38;;;;;;;;;;5027050;28;20091;-78
2021/12/19 03:20:34;;;;;;;25.02;9.98;;;;;;;;;;5020153;28;20139;-80
2021/12/19 03:23:01;;;;;;;19.88;10.32;;;;;;;;;;5018673;28;20029;-80
2021/12/19 03:25:28;;;;;;;30.63;14.63;;;;;;;;;;5024675;28;20826;-79
2021/12/19 03:27:55;;;;;;;46.13;23.77;;;;;;;;;;5022404;28;20033;-79
2021/12/19 03:30:21;;;;;;;57.63;27.15;;;;;;;;;;5026182;28;20021;-78
2021/12/19 03:32:47;;;;;;;59.65;28.33;;;;;;;;;;5028871;28;20029;-79
2021/12/19 03:35:14;;;;;;;54.65;26.45;;;;;;;;;;5025229;28;20033;-79
2021/12/19 03:37:42;;;;;;;47.67;26.85;;;;;;;;;;5022087;28;20029;-78
2021/12/19 03:40:11;;;;;;;59.72;27.75;;;;;;;;;;5013319;28;20123;-80
2021/12/19 03:42:39;;;;;;;64.35;29.05;;;;;;;;;;5026881;28;20030;-80
2021/12/19 03:45:07;;;;;;;63.75;31.20;;;;;;;;;;5027666;28;20032;-80
2021/12/19 03:47:34;;;;;;;60.47;30.35;;;;;;;;;;5031721;28;20026;-79
2021/12/19 03:50:02;;;;;;;54.75;26.98;;;;;;;;;;5023660;28;20022;-80
2021/12/19 03:52:28;;;;;;;60.95;30.60;;;;;;;;;;5027958;28;20134;-81
2021/12/19 03:54:55;;;;;;;66.10;30.95;;;;;;;;;;5029300;28;20488;-80
2021/12/19 03:57:23;;;;;;;62.92;28.98;;;;;;;;;;5021209;28;20029;-80
2021/12/19 03:59:49;;;;;;;53.85;28.75;;;;;;;;;;5029054;28;20032;-80
2021/12/19 04:02:24;;;;;;;52.35;27.00;;;;;;;;;;5030714;28;20021;-79
2021/12/19 04:04:50;;;;;;;38.13;21.23;;;;;;;;;;5028704;28;20113;-80
2021/12/19 04:07:17;;;;;;;33.30;18.60;;;;;;;;;;5030548;28;20404;-81
2021/12/19 04:09:43;;;;;;;30.70;17.55;;;;;;;;;;5026641;28;20022;-79
2021/12/19 04:12:10;;;;;;;32.85;16.50;;;;;;;;;;5007120;28;20098;-80
2021/12/19 04:14:36;;;;;;;28.98;15.40;;;;;;;;;;5027415;28;20526;-81
2021/12/19 04:17:03;;;;;;;36.33;14.75;;;;;;;;;;5032284;28;20060;-79
2021/12/19 04:19:30;;;;;;;36.70;14.38;;;;;;;;;;5013249;28;20057;-80
2021/12/19 04:21:58;;;;;;;29.15;14.50;;;;;;;;;;5029969;28;20037;-79
2021/12/19 04:24:24;;;;;;;26.67;13.27;;;;;;;;;;5030360;28;20049;-78
2021/12/19 04:26:50;;;;;;;30.73;15.32;;;;;;;;;;5027661;28;20036;-80
2021/12/19 04:29:17;;;;;;;31.52;16.52;;;;;;;;;;5028001;28;20026;-79
2021/12/19 04:31:43;;;;;;;33.58;16.52;;;;;;;;;;5030587;28;20025;-79
2021/12/19 04:34:12;;;;;;;31.92;16.08;;;;;;;;;;5032728;28;20079;-79
2021/12/19 04:36:41;;;;;;;32.45;15.77;;;;;;;;;;5041599;28;20079;-78
2021/12/19 04:39:25;;;;;;;27.45;13.30;;;;;;;;;;5032288;28;20025;-80
2021/12/19 04:42:47;;;;;;;22.55;12.75;;;;;;;;;;5009913;28;20075;-80
2021/12/19 04:55:44;;;;;;;14.93;8.63;;;;;;;;;;5024689;28;20129;-79
2021/12/19 05:03:41;;;;;;;20.98;11.38;;;;;;;;;;5023181;28;20036;-81
2021/12/19 05:06:17;;;;;;;24.50;10.82;;;;;;;;;;5035609;28;20026;-81
2021/12/19 05:14:19;;;;;;;28.20;11.93;;;;;;;;;;5048458;28;20106;-80
2021/12/19 05:16:47;;;;;;;20.48;11.68;;;;;;;;;;5046740;28;20108;-79
2021/12/19 05:19:28;;;;;;;23.85;11.68;;;;;;;;;;5041810;28;20083;-79
2021/12/19 05:21:59;;;;;;;21.05;10.52;;;;;;;;;;5037240;28;20041;-80
2021/12/19 05:27:07;;;;;;;19.15;11.48;;;;;;;;;;5033376;28;20491;-79
2021/12/19 05:29:34;;;;;;;25.58;11.25;;;;;;;;;;5029504;28;20028;-80
2021/12/19 05:32:01;;;;;;;23.50;12.20;;;;;;;;;;5031962;28;20053;-79
2021/12/19 05:34:29;;;;;;;21.67;11.35;;;;;;;;;;5029974;28;20067;-81
2021/12/19 05:45:14;;;;;;;19.25;9.52;;;;;;;;;;5025046;28;20139;-80
2021/12/19 05:47:46;;;;;;;25.55;10.35;;;;;;;;;;5026779;28;20018;-80
2021/12/19 05:50:13;;;;;;;18.13;10.00;;;;;;;;;;5029782;28;20053;-79
2021/12/19 05:52:40;;;;;;;21.27;11.07;;;;;;;;;;5029858;28;20022;-80
2021/12/19 05:55:07;;;;;;;20.50;11.10;;;;;;;;;;5012167;28;20683;-80
2021/12/19 05:57:34;;;;;;;23.90;11.65;;;;;;;;;;5029449;28;20083;-80
2021/12/19 06:00:00;;;;;;;26.80;13.68;;;;;;;;;;5029910;28;20025;-79
2021/12/19 06:02:27;;;;;;;22.95;12.80;;;;;;;;;;5030081;28;20480;-81
2021/12/19 06:04:53;;;;;;;23.67;13.68;;;;;;;;;;5032162;28;20375;-79
2021/12/19 06:07:20;;;;;;;34.85;13.57;;;;;;;;;;5033840;28;20029;-80
2021/12/19 06:09:46;;;;;;;19.98;10.82;;;;;;;;;;5029654;28;20021;-81
2021/12/19 06:12:12;;;;;;;19.83;12.90;;;;;;;;;;5021119;28;20051;-80
2021/12/19 06:14:39;;;;;;;26.15;12.75;;;;;;;;;;5015499;28;20045;-79
2021/12/19 06:17:05;;;;;;;20.65;11.32;;;;;;;;;;5032804;28;20052;-79
2021/12/19 06:19:36;;;;;;;19.13;11.05;;;;;;;;;;5031308;28;20424;-80
2021/12/19 06:22:04;;;;;;;19.77;9.32;;;;;;;;;;5014927;28;20087;-80
2021/12/19 06:24:30;;;;;;;20.77;9.98;;;;;;;;;;5015367;28;20135;-80
2021/12/19 06:26:56;;;;;;;22.10;11.85;;;;;;;;;;5034199;28;20393;-80
2021/12/19 06:29:23;;;;;;;20.33;10.63;;;;;;;;;;5033381;28;20025;-80
2021/12/19 06:31:50;;;;;;;18.45;10.20;;;;;;;;;;5033876;28;20044;-81
2021/12/19 06:34:16;;;;;;;24.23;9.82;;;;;;;;;;5029372;28;20018;-79
2021/12/19 06:36:43;;;;;;;17.33;9.05;;;;;;;;;;5026471;28;20465;-81
2021/12/19 06:39:09;;;;;;;18.48;9.60;;;;;;;;;;5026907;28;20033;-80
2021/12/19 06:41:39;;;;;;;19.23;9.52;;;;;;;;;;5015617;28;20086;-82
2021/12/19 06:44:05;;;;;;;16.75;9.05;;;;;;;;;;5009384;28;20078;-80
2021/12/19 06:46:32;;;;;;;17.83;8.75;;;;;;;;;;5023969;28;20207;-80
2021/12/19 06:48:59;;;;;;;21.20;7.93;;;;;;;;;;5027764;28;20029;-80
2021/12/19 06:51:25;;;;;;;17.63;7.15;;;;;;;;;;5009828;28;20038;-79
2021/12/19 06:53:52;;;;;;;16.73;7.53;;;;;;;;;;5025815;28;20053;-79
2021/12/19 06:56:18;;;;;;;15.48;7.65;;;;;;;;;;5023642;28;20040;-80
2021/12/19 06:58:45;;;;;;;15.80;7.72;;;;;;;;;;5033428;28;20034;-79
2021/12/19 07:01:11;;;;;;;14.90;7.82;;;;;;;;;;5030298;28;20239;-80
2021/12/19 07:03:37;;;;;;;21.48;9.55;;;;;;;;;;5025329;28;20119;-80
2021/12/19 07:06:04;;;;;;;19.00;10.10;;;;;;;;;;5023879;28;20465;-81
2021/12/19 07:08:30;;;;;;;20.13;10.07;;;;;;;;;;5024709;28;20410;-81
2021/12/19 07:10:57;;;;;;;19.25;9.27;;;;;;;;;;5021401;28;20249;-80
2021/12/19 07:13:23;;;;;;;15.77;9.32;;;;;;;;;;5023522;28;20022;-81
2021/12/19 07:15:53;;;;;;;13.50;7.60;;;;;;;;;;5024216;28;20095;-81
2021/12/19 07:18:20;;;;;;;13.40;6.97;;;;;;;;;;5023098;28;20033;-81
2021/12/19 07:20:47;;;;;;;16.15;6.97;;;;;;;;;;5025961;28;20025;-80
2021/12/19 07:23:15;;;;;;;12.10;5.80;;;;;;;;;;5008670;28;20080;-80
2021/12/19 07:25:41;;;;;;;11.65;5.72;;;;;;;;;;5027972;28;20087;-80
2021/12/19 07:28:08;;;;;;;11.35;5.35;;;;;;;;;;5026098;28;20029;-80
2021/12/19 07:30:38;;;;;;;11.65;5.68;;;;;;;;;;5025882;28;20022;-81
2021/12/19 07:33:05;;;;;;;15.18;6.03;;;;;;;;;;5028189;28;20099;-80
2021/12/19 07:35:35;;;;;;;14.90;5.85;;;;;;;;;;5029097;28;20038;-79
2021/12/19 07:38:03;;;;;;;12.80;7.72;;;;;;;;;;5019554;28;20108;-78
2021/12/19 07:40:35;;;;;;;14.32;6.90;;;;;;;;;;5009038;28;20029;-81
2021/12/19 07:43:03;;;;;;;13.23;7.18;;;;;;;;;;5027941;28;20138;-81
2021/12/19 07:45:30;;;;;;;13.60;6.90;;;;;;;;;;5026904;28;20030;-80
2021/12/19 07:47:57;;;;;;;13.57;6.20;;;;;;;;;;5024513;28;20539;-80
2021/12/19 07:50:23;;;;;;;14.52;6.65;;;;;;;;;;5021409;28;20051;-78
2021/12/19 07:52:49;;;;;;;23.85;10.35;;;;;;;;;;5020747;28;20030;-80
2021/12/19 07:55:16;;;;;;;19.83;9.23;;;;;;;;;;5021630;28;20088;-79
2021/12/19 07:57:42;;;;;;;27.17;12.00;;;;;;;;;;5023848;28;20043;-80
2021/12/19 08:00:10;;;;;;;22.52;10.98;;;;;;;;;;5020664;28;20525;-79
2021/12/19 08:02:36;;;;;;;19.17;8.88;;;;;;;;;;5025868;28;20076;-80
2021/12/19 08:05:04;;;;;;;20.67;9.50;;;;;;;;;;5025978;28;20029;-80
2021/12/19 08:07:30;;;;;;;23.92;9.23;;;;;;;;;;5022497;28;20022;-81
2021/12/19 08:12:43;;;;;;;18.52;8.80;;;;;;;;;;4993859;28;20029;-81
2021/12/19 08:15:11;;;;;;;19.02;10.30;;;;;;;;;;5027042;28;20480;-80
2021/12/19 08:17:37;;;;;;;19.58;11.07;;;;;;;;;;5030416;28;20033;-81
2021/12/19 08:20:04;;;;;;;25.90;12.13;;;;;;;;;;5026257;28;20377;-80
2021/12/19 08:22:32;;;;;;;20.58;11.02;;;;;;;;;;5029941;28;20492;-80
2021/12/19 08:24:58;;;;;;;17.02;9.45;;;;;;;;;;5022711;28;20030;-80
2021/12/19 08:27:25;;;;;;;22.45;10.00;;;;;;;;;;5023029;28;20105;-79
2021/12/19 08:29:54;;;;;;;20.63;10.18;;;;;;;;;;5004627;28;20030;-80
2021/12/19 08:32:20;;;;;;;24.60;9.43;;;;;;;;;;5028556;28;20040;-80
2021/12/19 08:34:47;;;;;;;24.88;9.27;;;;;;;;;;5028029;28;20033;-81
2021/12/19 08:37:15;;;;;;;17.38;7.57;;;;;;;;;;5031077;28;20083;-81
2021/12/19 08:39:43;;;;;;;15.35;6.88;;;;;;;;;;5031113;28;20483;-80
2021/12/19 08:42:11;;;;;;;16.13;7.35;;;;;;;;;;5030495;28;20485;-79
2021/12/19 08:44:38;;;;;;;13.90;8.05;;;;;;;;;;5015592;28;20116;-80
2021/12/19 08:47:04;;;;;;;19.63;11.20;;;;;;;;;;5016122;28;20112;-80
2021/12/19 08:49:31;;;;;;;27.30;15.88;;;;;;;;;;5030175;28;20836;-80
2021/12/19 08:51:57;;;;;;;36.15;19.38;;;;;;;;;;5030083;28;20702;-80
2021/12/19 08:54:24;;;;;;;32.47;16.98;;;;;;;;;;5012922;28;20057;-81
2021/12/19 08:56:50;;;;;;;29.42;15.65;;;;;;;;;;5014649;28;20033;-82
2021/12/19 08:59:17;;;;;;;30.88;18.35;;;;;;;;;;5033379;28;20033;-80
2021/12/19 09:01:43;;;;;;;17.20;8.38;;;;;;;;;;5028487;28;20476;-79
2021/12/19 09:04:10;;;;;;;22.15;10.20;;;;;;;;;;5032751;28;20025;-80
2021/12/19 09:06:36;;;;;;;27.08;14.35;;;;;;;;;;5032871;28;20075;-80
2021/12/19 09:09:04;;;;;;;29.52;16.95;;;;;;;;;;5031431;28;20017;-81
2021/12/19 09:11:31;;;;;;;28.45;16.05;;;;;;;;;;5036230;28;20026;-80
2021/12/19 09:13:58;;;;;;;34.13;20.25;;;;;;;;;;5034410;28;20427;-80
2021/12/19 09:16:25;;;;;;;35.40;20.88;;;;;;;;;;5016573;28;20384;-80
2021/12/19 09:18:52;;;;;;;36.80;22.80;;;;;;;;;;5034131;28;20029;-80
2021/12/19 09:21:18;;;;;;;48.28;30.45;;;;;;;;;;5033578;28;20530;-79
2021/12/19 09:23:44;;;;;;;51.42;27.35;;;;;;;;;;5038672;28;20041;-81
2021/12/19 09:26:11;;;;;;;35.75;23.50;;;;;;;;;;5044915;28;20025;-82
2021/12/19 09:28:38;;;;;;;39.05;24.65;;;;;;;;;;5040821;28;20109;-79
2021/12/19 09:31:05;;;;;;;41.78;26.80;;;;;;;;;;5044351;28;20025;-80
2021/12/19 09:33:31;;;;;;;44.20;25.98;;;;;;;;;;5046155;28;20017;-81
2021/12/19 09:35:59;;;;;;;35.42;22.00;;;;;;;;;;5042229;28;20029;-80
2021/12/19 09:38:26;;;;;;;35.75;23.08;;;;;;;;;;5018423;28;20026;-81
2021/12/19 09:40:59;;;;;;;33.42;21.00;;;;;;;;;;5029271;28;20117;-80
2021/12/19 09:43:41;;;;;;;36.45;20.88;;;;;;;;;;5030206;28;20100;-81
2021/12/19 09:46:29;;;;;;;39.22;25.08;;;;;;;;;;5031126;28;20029;-82
2021/12/19 09:48:56;;;;;;;47.25;27.77;;;;;;;;;;5031850;28;20566;-80
2021/12/19 09:51:22;;;;;;;46.75;26.45;;;;;;;;;;5024040;28;20028;-80
2021/12/19 09:53:49;;;;;;;40.97;24.50;;;;;;;;;;5012571;28;20104;-80
2021/12/19 09:56:15;;;;;;;37.10;22.63;;;;;;;;;;5024617;28;20108;-80
2021/12/19 09:58:42;;;;;;;44.17;25.38;;;;;;;;;;5010398;28;20036;-80
2021/12/19 10:01:10;;;;;;;43.78;24.92;;;;;;;;;;5029743;28;20056;-80
2021/12/19 10:03:37;;;;;;;49.70;27.95;;;;;;;;;;5022803;28;20531;-80
2021/12/19 10:06:23;;;;;;;49.85;27.52;;;;;;;;;;5025672;28;20029;-79
2021/12/19 10:09:17;;;;;;;49.80;27.10;;;;;;;;;;5026173;28;20022;-80
2021/12/19 10:14:37;;;;;;;49.35;28.05;;;;;;;;;;4984745;28;20042;-79
2021/12/19 10:17:16;;;;;;;56.88;30.30;;;;;;;;;;5025021;28;20022;-80
2021/12/19 10:19:47;;;;;;;56.50;31.52;;;;;;;;;;5026781;28;20106;-79
2021/12/19 10:22:32;;;;;;;52.88;30.73;;;;;;;;;;5022000;28;20029;-80
2021/12/19 10:25:11;;;;;;;46.45;29.15;;;;;;;;;;5025472;28;20035;-80
2021/12/19 10:27:46;;;;;;;59.17;32.95;;;;;;;;;;5008748;28;20025;-80
2021/12/19 10:30:17;;;;;;;66.25;35.78;;;;;;;;;;5024566;28;20018;-80
2021/12/19 10:33:09;;;;;;;55.75;35.00;;;;;;;;;;5024387;28;20104;-81
2021/12/19 10:35:41;;;;;;;60.85;31.83;;;;;;;;;;5020827;28;20037;-80
2021/12/19 10:38:27;;;;;;;54.85;31.48;;;;;;;;;;5025141;28;20497;-81
2021/12/19 10:40:55;;;;;;;74.90;35.53;;;;;;;;;;5026963;28;20383;-80
2021/12/19 10:43:24;;;;;;;75.50;39.83;;;;;;;;;;5027980;28;20018;-81
2021/12/19 10:45:52;;;;;;;78.97;37.28;;;;;;;;;;5006051;28;20033;-80
2021/12/19 10:48:20;;;;;;;77.75;37.05;;;;;;;;;;5010381;28;20568;-81
2021/12/19 10:50:49;;;;;;;84.38;37.83;;;;;;;;;;5024025;28;20036;-82
2021/12/19 10:53:17;;;;;;;71.60;34.28;;;;;;;;;;5022986;28;20049;-81
2021/12/19 10:55:46;;;;;;;64.00;32.67;;;;;;;;;;5027487;28;20468;-82
2021/12/19 10:58:35;;;;;;;55.40;27.90;;;;;;;;;;5025486;28;20036;-81
2021/12/19 11:01:06;;;;;;;47.85;26.85;;;;;;;;;;5020480;28;20021;-79
2021/12/19 11:03:37;;;;;;;50.05;26.50;;;;;;;;;;5026982;28;20377;-80
2021/12/19 11:06:14;;;;;;;52.83;27.08;;;;;;;;;;5023392;28;20461;-81
2021/12/19 11:08:41;;;;;;;48.97;27.90;;;;;;;;;;5025941;28;20161;-82
2021/12/19 11:11:08;;;;;;;54.47;28.90;;;;;;;;;;5026806;28;20038;-81
2021/12/19 11:13:35;;;;;;;55.00;28.50;;;;;;;;;;5008912;28;20025;-81
2021/12/19 11:16:01;;;;;;;57.65;27.75;;;;;;;;;;5028320;28;20048;-82
2021/12/19 11:18:28;;;;;;;57.55;28.63;;;;;;;;;;5026143;28;20378;-80
2021/12/19 11:20:54;;;;;;;55.17;26.05;;;;;;;;;;5026527;28;20022;-80
2021/12/19 11:23:21;;;;;;;58.67;29.10;;;;;;;;;;5026124;28;20028;-80
2021/12/19 11:25:47;;;;;;;65.35;28.90;;;;;;;;;;5022539;28;20308;-80
2021/12/19 11:28:16;;;;;;;57.47;29.83;;;;;;;;;;5007524;28;20021;-80
2021/12/19 11:30:43;;;;;;;63.42;31.75;;;;;;;;;;5023563;28;20026;-81
2021/12/19 11:33:12;;;;;;;58.58;29.40;;;;;;;;;;5027243;28;20021;-81
2021/12/19 11:35:42;;;;;;;55.17;31.30;;;;;;;;;;5024786;28;20144;-80
2021/12/19 11:38:11;;;;;;;74.85;35.40;;;;;;;;;;5028125;28;20112;-80
2021/12/19 11:40:38;;;;;;;68.25;41.33;;;;;;;;;;5024992;28;20033;-79
2021/12/19 11:43:05;;;;;;;76.22;40.72;;;;;;;;;;5012015;28;20496;-80
2021/12/19 11:48:22;;;;;;;65.78;35.63;;;;;;;;;;5033422;28;20029;-79
2021/12/19 11:50:53;;;;;;;62.72;34.10;;;;;;;;;;5019767;28;20029;-82
2021/12/19 11:53:22;;;;;;;64.82;32.55;;;;;;;;;;5010149;28;20481;-80
2021/12/19 11:55:50;;;;;;;59.58;33.30;;;;;;;;;;5024269;28;20052;-82
2021/12/19 11:58:18;;;;;;;71.32;34.15;;;;;;;;;;5030596;28;20068;-83
2021/12/19 12:00:52;;;;;;;71.78;34.97;;;;;;;;;;5027601;28;20021;-80
2021/12/19 12:03:21;;;;;;;61.95;33.28;;;;;;;;;;5020630;28;20051;-82
2021/12/19 12:05:49;;;;;;;61.97;32.38;;;;;;;;;;5025914;28;20120;-81
2021/12/19 12:08:19;;;;;;;68.38;34.60;;;;;;;;;;5014101;28;20578;-80
2021/12/19 12:10:52;;;;;;;63.40;34.17;;;;;;;;;;5029220;28;20030;-80
2021/12/19 12:13:39;;;;;;;66.85;33.03;;;;;;;;;;5024291;28;20338;-81
2021/12/19 12:16:21;;;;;;;72.13;32.83;;;;;;;;;;5007716;28;20053;-82
2021/12/19 12:18:55;;;;;;;64.68;33.40;;;;;;;;;;5010430;28;20029;-81
2021/12/19 12:21:28;;;;;;;60.00;32.50;;;;;;;;;;5031451;28;20025;-82
2021/12/19 12:24:04;;;;;;;64.90;34.90;;;;;;;;;;5026355;28;20498;-81
2021/12/19 12:26:38;;;;;;;68.72;35.53;;;;;;;;;;5024197;28;20037;-82
2021/12/19 12:29:05;;;;;;;69.20;37.90;;;;;;;;;;5020960;28;20026;-82
2021/12/19 12:31:32;;;;;;;66.95;36.05;;;;;;;;;;5005646;28;20058;-82
2021/12/19 12:33:58;;;;;;;78.90;43.00;;;;;;;;;;5024018;28;20401;-83
2021/12/19 12:36:25;;;;;;;84.50;44.08;;;;;;;;;;5024606;28;20041;-82
2021/12/19 12:38:52;;;;;;;75.60;40.50;;;;;;;;;;5026056;28;20061;-81
2021/12/19 12:42:11;;;;;;;78.85;41.35;;;;;;;;;;5030566;28;20041;-82
2021/12/19 12:44:17;;;;;;;71.88;37.63;;;;;;;;;;5016474;28;20033;-82
2021/12/19 12:46:44;;;;;;;75.85;42.55;;;;;;;;;;5008853;28;20026;-82
2021/12/19 12:49:15;;;;;;;80.15;43.72;;;;;;;;;;5029193;28;20025;-80
2021/12/19 12:51:42;;;;;;;79.20;42.50;;;;;;;;;;5030476;28;20034;-81
2021/12/19 12:54:12;;;;;;;80.22;42.60;;;;;;;;;;5012005;28;20096;-81
2021/12/19 12:56:48;;;;;;;74.60;41.65;;;;;;;;;;5022736;28;20021;-81
2021/12/19 12:59:18;;;;;;;78.65;45.65;;;;;;;;;;5018147;28;20034;-81
2021/12/19 13:01:48;;;;;;;80.88;42.05;;;;;;;;;;5024810;28;20595;-81
2021/12/19 13:04:15;;;;;;;64.25;35.60;;;;;;;;;;5031405;28;20512;-81
2021/12/19 13:06:42;;;;;;;58.20;33.67;;;;;;;;;;5032041;28;20105;-81
2021/12/19 13:09:11;;;;;;;75.32;39.33;;;;;;;;;;5029975;28;20021;-82
2021/12/19 13:11:38;;;;;;;96.13;52.50;;;;;;;;;;5011681;28;20049;-80
2021/12/19 13:14:14;;;;;;;90.07;48.13;;;;;;;;;;5027881;28;20496;-82
2021/12/19 13:16:48;;;;;;;76.47;43.03;;;;;;;;;;5029475;28;20037;-81
2021/12/19 13:19:33;;;;;;;93.55;46.58;;;;;;;;;;5021608;28;20116;-81
2021/12/19 13:22:00;;;;;;;93.53;52.25;;;;;;;;;;5027857;28;20488;-81
2021/12/19 13:24:26;;;;;;;94.75;56.15;;;;;;;;;;5026646;28;20420;-81
2021/12/19 13:27:11;;;;;;;107.20;60.22;;;;;;;;;;5022395;28;20030;-83
2021/12/19 13:29:38;;;;;;;112.57;60.25;;;;;;;;;;5027357;28;20032;-81
2021/12/19 13:32:22;;;;;;;126.03;74.72;;;;;;;;;;5029358;28;20096;-81
2021/12/19 13:34:48;;;;;;;181.75;111.07;;;;;;;;;;5035159;28;20037;-81
2021/12/19 13:37:15;;;;;;;203.15;129.18;;;;;;;;;;5035512;28;20044;-80
2021/12/19 13:39:43;;;;;;;211.45;125.95;;;;;;;;;;5034852;28;20040;-80
2021/12/19 13:42:10;;;;;;;231.38;145.57;;;;;;;;;;5022509;28;20028;-81
2021/12/19 13:44:37;;;;;;;241.80;148.30;;;;;;;;;;5030725;28;20033;-80
2021/12/19 13:47:23;;;;;;;236.30;147.35;;;;;;;;;;5035437;28;20106;-81
2021/12/19 13:49:49;;;;;;;233.40;147.27;;;;;;;;;;5034996;28;20117;-82
2021/12/19 13:52:16;;;;;;;225.70;142.13;;;;;;;;;;5030140;28;20029;-82
2021/12/19 13:54:42;;;;;;;238.23;141.98;;;;;;;;;;5035232;28;20484;-82
2021/12/19 13:57:19;;;;;;;222.82;138.60;;;;;;;;;;5030852;28;20018;-81
2021/12/19 13:59:45;;;;;;;227.25;139.88;;;;;;;;;;5018686;28;20023;-80
2021/12/19 14:02:12;;;;;;;211.43;131.48;;;;;;;;;;5034713;28;20025;-80
2021/12/19 14:04:39;;;;;;;216.05;134.38;;;;;;;;;;5017036;28;20542;-81
2021/12/19 14:07:10;;;;;;;223.18;134.07;;;;;;;;;;5016421;28;20037;-80
2021/12/19 14:09:41;;;;;;;242.55;146.13;;;;;;;;;;5039520;28;20026;-80
2021/12/19 14:12:25;;;;;;;237.60;150.65;;;;;;;;;;5041771;28;20025;-82
2021/12/19 14:14:51;;;;;;;234.27;144.52;;;;;;;;;;5034800;28;20144;-81
2021/12/19 14:17:20;;;;;;;231.55;146.63;;;;;;;;;;5033277;28;20473;-80
2021/12/19 14:19:51;;;;;;;230.02;145.40;;;;;;;;;;5029541;28;20469;-80
2021/12/19 14:22:19;;;;;;;225.90;142.07;;;;;;;;;;5005823;28;20085;-81
2021/12/19 14:24:45;;;;;;;210.40;133.50;;;;;;;;;;5034512;28;20531;-81
2021/12/19 14:27:14;;;;;;;188.10;115.82;;;;;;;;;;5042593;28;20020;-83
2021/12/19 14:29:41;;;;;;;188.73;113.85;;;;;;;;;;5031795;28;20483;-81
2021/12/19 14:32:10;;;;;;;167.55;101.85;;;;;;;;;;5032616;28;20025;-80
2021/12/19 14:34:37;;;;;;;159.02;99.28;;;;;;;;;;5028737;28;20018;-81
2021/12/19 14:37:19;;;;;;;153.32;91.97;;;;;;;;;;5029580;28;20136;-81
2021/12/19 14:40:04;;;;;;;150.02;88.22;;;;;;;;;;5032640;28;20045;-80
2021/12/19 14:42:36;;;;;;;123.65;73.07;;;;;;;;;;5014737;28;20416;-81
2021/12/19 14:45:04;;;;;;;102.53;61.70;;;;;;;;;;5019820;28;20280;-81
2021/12/19 14:47:38;;;;;;;84.55;47.50;;;;;;;;;;5034052;28;20029;-80
2021/12/19 14:50:12;;;;;;;65.82;36.67;;;;;;;;;;5034294;28;20032;-80
2021/12/19 14:52:38;;;;;;;59.90;31.83;;;;;;;;;;5033730;28;20494;-81
2021/12/19 14:55:12;;;;;;;53.70;28.02;;;;;;;;;;5025350;28;20029;-82
2021/12/19 14:57:38;;;;;;;58.92;28.67;;;;;;;;;;5021560;28;20106;-81
2021/12/19 15:00:05;;;;;;;53.97;25.60;;;;;;;;;;5034531;28;20387;-80
2021/12/19 15:02:32;;;;;;;42.50;21.63;;;;;;;;;;5044093;28;20029;-79
2021/12/19 15:04:59;;;;;;;49.45;20.65;;;;;;;;;;5037372;28;20036;-80
2021/12/19 15:07:26;;;;;;;43.85;19.67;;;;;;;;;;5037273;28;20106;-81
2021/12/19 15:09:53;;;;;;;46.03;20.10;;;;;;;;;;5036820;28;20021;-81
2021/12/19 15:12:19;;;;;;;45.00;18.48;;;;;;;;;;5035494;28;20499;-81
2021/12/19 15:14:46;;;;;;;48.33;19.20;;;;;;;;;;5037116;28;20089;-81
2021/12/19 15:17:12;;;;;;;48.03;18.75;;;;;;;;;;5016631;28;20117;-82
2021/12/19 15:19:38;;;;;;;50.28;19.88;;;;;;;;;;5033328;28;20143;-81
2021/12/19 15:22:05;;;;;;;48.45;21.90;;;;;;;;;;5032860;28;20029;-80
2021/12/19 15:24:32;;;;;;;52.00;20.55;;;;;;;;;;5032744;28;20029;-82
2021/12/19 15:26:59;;;;;;;49.03;19.40;;;;;;;;;;5025883;28;20427;-81
2021/12/19 15:29:25;;;;;;;43.33;20.27;;;;;;;;;;5032492;28;20105;-80
2021/12/19 15:31:52;;;;;;;49.42;20.73;;;;;;;;;;5014593;28;20100;-81